createdAt,value
2023-02-22T04:47:27.963Z,517.67
2023-02-22T04:50:19.023Z,523.58
2023-02-22T04:52:45.788Z,521.15
2023-02-22T04:55:12.448Z,518.90
2023-02-22T04:57:39.230Z,517.85
2023-02-22T05:00:06.484Z,523.00
2023-02-22T05:02:33.276Z,512.28
2023-02-22T05:04:59.982Z,519.08
2023-02-22T05:07:26.746Z,519.47
2023-02-22T05:09:53.430Z,513.13
2023-02-22T05:12:20.120Z,511.70
2023-02-22T05:14:47.002Z,523.03
2023-02-22T05:17:13.867Z,518.83
2023-02-22T05:19:41.992Z,516.63
2023-02-22T05:22:08.800Z,519.65
2023-02-22T05:24:35.547Z,517.08
2023-02-22T05:27:02.213Z,522.20
2023-02-22T05:29:28.891Z,520.70
2023-02-22T05:31:55.789Z,521.38
2023-02-22T05:34:22.536Z,515.38
2023-02-22T05:36:49.167Z,518.05
2023-02-22T05:39:16.290Z,513.47
2023-02-22T05:41:43.049Z,515.40
2023-02-22T05:44:09.703Z,519.47
2023-02-22T05:46:36.376Z,518.50
2023-02-22T05:49:03.453Z,517.05
2023-02-22T05:51:30.089Z,514.77
2023-02-22T05:53:56.799Z,517.25
2023-02-22T05:56:25.987Z,527.50
2023-02-22T05:58:53.146Z,519.60
2023-02-22T06:01:20.258Z,518.80
2023-02-22T06:03:50.003Z,519.20
2023-02-22T06:06:19.603Z,519.83
2023-02-22T06:08:47.901Z,517.83
2023-02-22T06:11:14.894Z,519.92
2023-02-22T06:13:41.844Z,513.83
2023-02-22T06:16:08.865Z,515.78
2023-02-22T06:18:35.565Z,522.53
2023-02-22T06:21:02.369Z,517.00
2023-02-22T06:23:29.091Z,517.65
2023-02-22T06:25:55.727Z,517.77
2023-02-22T06:28:23.691Z,525.85
2023-02-22T06:30:50.409Z,521.80
2023-02-22T06:33:17.098Z,528.25
2023-02-22T06:35:43.876Z,518.40
2023-02-22T06:38:10.733Z,518.85
2023-02-22T06:40:37.388Z,517.28
2023-02-22T06:43:04.101Z,521.83
2023-02-22T06:45:31.083Z,523.97
2023-02-22T06:47:57.753Z,523.25
2023-02-22T06:50:30.194Z,523.50
2023-02-22T06:52:57.884Z,530.03
2023-02-22T06:55:28.048Z,539.05
2023-02-22T06:57:54.895Z,538.33
2023-02-22T07:00:24.898Z,539.65
2023-02-22T07:02:53.255Z,541.92
2023-02-22T07:05:21.735Z,544.70
2023-02-22T07:07:49.672Z,554.45
2023-02-22T07:10:23.549Z,544.03
2023-02-22T07:12:52.374Z,539.50
2023-02-22T07:15:21.592Z,542.97
2023-02-22T07:17:48.490Z,546.55
2023-02-22T07:20:16.152Z,548.85
2023-02-22T07:22:42.929Z,552.30
2023-02-22T07:25:11.187Z,554.88
2023-02-22T07:27:39.645Z,554.08
2023-02-22T07:30:07.955Z,550.33
2023-02-22T07:32:34.769Z,560.73
2023-02-22T07:35:02.906Z,561.33
2023-02-22T07:37:30.224Z,561.63
2023-02-22T07:39:56.921Z,573.17
2023-02-22T07:42:23.781Z,582.10
2023-02-22T07:44:50.483Z,594.47
2023-02-22T07:47:17.148Z,596.05
2023-02-22T07:49:43.850Z,597.60
2023-02-22T07:52:12.525Z,602.30
2023-02-22T07:54:39.344Z,613.95
2023-02-22T07:57:06.022Z,622.80
2023-02-22T07:59:33.846Z,625.80
2023-02-22T08:02:00.749Z,636.83
2023-02-22T08:04:27.400Z,637.25
2023-02-22T08:06:54.084Z,643.97
2023-02-22T08:09:20.689Z,649.03
2023-02-22T08:11:47.331Z,650.97
2023-02-22T08:14:17.347Z,665.42
2023-02-22T08:16:44.079Z,670.47
2023-02-22T08:19:10.734Z,688.80
2023-02-22T08:21:37.422Z,701.28
2023-02-22T08:24:04.330Z,704.08
2023-02-22T08:26:31.106Z,704.70
2023-02-22T08:28:57.794Z,709.75
2023-02-22T08:31:24.478Z,721.58
2023-02-22T08:33:51.241Z,736.47
2023-02-22T08:36:18.602Z,771.90
2023-02-22T08:38:45.283Z,786.72
2023-02-22T08:41:11.979Z,787.03
2023-02-22T08:43:38.595Z,792.10
2023-02-22T08:46:05.381Z,801.83
2023-02-22T08:48:32.047Z,800.00
2023-02-22T08:50:58.834Z,814.20
2023-02-22T08:53:25.654Z,818.97
2023-02-22T08:55:52.900Z,825.42
2023-02-22T08:58:19.659Z,833.67
2023-02-22T09:00:46.379Z,851.90
2023-02-22T09:03:14.861Z,876.42
2023-02-22T09:05:43.437Z,879.33
2023-02-22T09:08:10.754Z,887.97
2023-02-22T09:10:37.562Z,902.47
2023-02-22T09:13:04.816Z,897.85
2023-02-22T09:15:32.399Z,901.95
2023-02-22T09:17:59.572Z,898.33
2023-02-22T09:20:27.069Z,897.20
2023-02-22T09:22:55.235Z,912.47
2023-02-22T09:25:22.664Z,937.05
2023-02-22T09:27:53.970Z,950.42
2023-02-22T09:30:32.592Z,983.90
2023-02-22T09:33:02.419Z,999.90
2023-02-22T09:35:29.898Z,999.90
2023-02-22T09:37:58.780Z,999.90
2023-02-22T09:40:30.167Z,999.90
2023-02-22T09:43:24.762Z,999.90
2023-02-22T09:46:03.023Z,999.90
2023-02-22T09:48:33.948Z,999.90
2023-02-22T09:51:05.237Z,999.90
2023-02-22T09:53:37.331Z,999.90
2023-02-22T09:56:10.993Z,999.90
2023-02-22T09:58:45.797Z,999.90
2023-02-22T10:01:28.080Z,999.90
2023-02-22T10:04:23.109Z,999.90
2023-02-22T10:07:15.477Z,999.90
2023-02-22T10:09:43.528Z,999.90
2023-02-22T10:12:25.551Z,999.90
2023-02-22T10:15:05.190Z,999.90
2023-02-22T10:17:50.001Z,999.90
2023-02-22T10:20:42.883Z,999.90
2023-02-22T10:23:29.794Z,999.90
2023-02-22T10:26:14.750Z,999.90
2023-02-22T10:29:08.438Z,999.90
2023-02-22T10:31:42.438Z,999.90
2023-02-22T10:34:17.278Z,999.90
2023-02-22T10:36:49.207Z,999.90
2023-02-22T10:39:38.796Z,999.90
2023-02-22T10:42:07.936Z,999.90
2023-02-22T10:44:35.999Z,999.90
2023-02-22T10:47:06.038Z,999.90
2023-02-22T10:49:40.992Z,999.90
2023-02-22T10:52:34.453Z,999.90
2023-02-22T10:55:14.665Z,999.90
2023-02-22T10:57:44.237Z,999.90
2023-02-22T11:00:29.536Z,999.90
2023-02-22T11:03:01.497Z,999.90
2023-02-22T11:05:28.935Z,999.90
2023-02-22T11:08:20.671Z,999.90
2023-02-22T11:10:48.695Z,999.90
2023-02-22T11:13:25.811Z,999.90
2023-02-22T11:15:54.241Z,999.90
2023-02-22T11:18:33.738Z,999.90
2023-02-22T11:21:07.841Z,999.90
2023-02-22T11:23:38.245Z,999.90
2023-02-22T11:26:09.519Z,999.90
2023-02-22T11:28:37.328Z,999.90
2023-02-22T11:31:18.210Z,999.90
2023-02-22T11:36:40.267Z,999.90
2023-02-22T11:39:35.428Z,999.90
2023-02-22T11:42:23.187Z,999.90
2023-02-22T11:45:07.529Z,999.90
2023-02-22T11:47:35.712Z,999.90
2023-02-22T11:50:10.089Z,999.90
2023-02-22T11:52:44.714Z,999.90
2023-02-22T11:55:43.099Z,999.90
2023-02-22T11:58:37.869Z,999.90
2023-02-22T12:01:25.534Z,999.90
2023-02-22T12:04:15.641Z,999.90
2023-02-22T12:07:05.905Z,999.90
2023-02-22T12:09:51.671Z,999.90
2023-02-22T12:12:27.541Z,999.90
2023-02-22T12:15:05.125Z,999.90
2023-02-22T12:17:54.309Z,999.90
2023-02-22T12:20:37.119Z,999.90
2023-02-22T12:23:22.583Z,999.90
2023-02-22T12:26:16.526Z,999.90
2023-02-22T12:29:06.172Z,999.90
2023-02-22T12:32:12.238Z,999.90
2023-02-22T12:35:05.380Z,999.90
2023-02-22T12:38:04.702Z,999.90
2023-02-22T12:40:57.053Z,999.90
2023-02-22T12:43:42.886Z,999.90
2023-02-22T12:46:12.052Z,999.90
2023-02-22T12:48:59.027Z,999.90
2023-02-22T12:51:41.639Z,999.90
2023-02-22T12:54:23.354Z,999.90
2023-02-22T12:56:52.988Z,999.90
2023-02-22T12:59:25.475Z,991.22
2023-02-22T13:01:58.762Z,988.92
2023-02-22T13:04:25.490Z,979.88
2023-02-22T13:07:10.156Z,975.30
2023-02-22T13:10:06.587Z,964.42
2023-02-22T13:12:52.508Z,962.22
2023-02-22T13:15:24.053Z,952.45
2023-02-22T13:18:19.160Z,942.42
2023-02-22T13:21:22.919Z,940.28
2023-02-22T13:24:06.738Z,926.10
2023-02-22T13:26:52.033Z,931.72
2023-02-22T13:29:36.916Z,929.58
2023-02-22T13:32:18.969Z,934.30
2023-02-22T13:34:51.321Z,934.13
2023-02-22T13:37:35.449Z,951.25
2023-02-22T13:40:26.710Z,950.30
2023-02-22T13:43:23.086Z,948.65
2023-02-22T13:46:17.951Z,937.83
2023-02-22T13:48:56.648Z,928.15
2023-02-22T13:51:23.268Z,934.47
2023-02-22T13:54:19.703Z,925.25
2023-02-22T13:56:49.131Z,929.80
2023-02-22T13:59:36.270Z,934.77
2023-02-22T14:02:04.851Z,939.05
2023-02-22T14:04:31.445Z,934.15
2023-02-22T14:07:29.911Z,939.03
2023-02-22T14:09:59.132Z,935.07
2023-02-22T14:12:33.437Z,927.78
2023-02-22T14:15:28.258Z,918.88
2023-02-22T14:17:58.289Z,915.47
2023-02-22T14:20:36.136Z,919.65
2023-02-22T14:23:30.129Z,916.20
2023-02-22T14:26:10.209Z,916.72
2023-02-22T14:28:42.699Z,926.35
2023-02-22T14:31:17.444Z,928.70
2023-02-22T14:33:50.596Z,939.78
2023-02-22T14:36:18.705Z,938.47
2023-02-22T14:38:47.098Z,936.80
2023-02-22T14:41:16.803Z,936.03
2023-02-22T14:43:45.232Z,931.13
2023-02-22T14:46:20.632Z,925.20
2023-02-22T14:48:50.496Z,925.25
2023-02-22T14:51:31.706Z,921.17
2023-02-22T14:54:10.144Z,928.97
2023-02-22T14:56:52.073Z,912.20
2023-02-22T14:59:24.074Z,913.47
2023-02-22T15:02:11.365Z,915.43
2023-02-22T15:04:42.290Z,918.92
2023-02-22T15:07:30.366Z,909.70
2023-02-22T15:10:45.930Z,903.80
2023-02-22T15:13:23.664Z,909.67
2023-02-22T15:16:03.357Z,909.35
2023-02-22T15:18:36.984Z,905.22
2023-02-22T15:21:15.889Z,906.60
2023-02-22T15:23:53.884Z,902.40
2023-02-22T15:26:31.257Z,904.65
2023-02-22T15:28:59.765Z,900.25
2023-02-22T15:31:32.862Z,896.90
2023-02-22T15:34:24.282Z,892.67
2023-02-22T15:36:56.198Z,877.15
2023-02-22T15:39:29.775Z,886.75
2023-02-22T15:42:07.956Z,881.63
2023-02-22T15:44:40.435Z,885.03
2023-02-22T15:47:11.656Z,878.15
2023-02-22T15:49:38.350Z,881.13
2023-02-22T15:52:19.686Z,873.72
2023-02-22T15:54:50.263Z,864.85
2023-02-22T15:57:20.278Z,860.15
2023-02-22T15:59:53.579Z,863.67
2023-02-22T16:02:30.236Z,865.60
2023-02-22T16:05:00.647Z,868.20
2023-02-22T16:07:28.016Z,860.97
2023-02-22T16:09:54.959Z,861.08
2023-02-22T16:12:21.625Z,860.58
2023-02-22T16:14:49.024Z,861.90
2023-02-22T16:18:01.663Z,858.70
2023-02-22T16:20:30.592Z,857.42
2023-02-22T16:22:57.933Z,859.00
2023-02-22T16:25:32.738Z,855.47
2023-02-22T16:28:06.021Z,843.58
2023-02-22T16:30:39.465Z,843.83
2023-02-22T16:33:13.461Z,847.72
2023-02-22T16:35:41.051Z,850.65
2023-02-22T16:38:16.814Z,850.83
2023-02-22T16:40:53.789Z,850.35
2023-02-22T16:43:26.267Z,848.50
2023-02-22T16:45:53.583Z,853.58
2023-02-22T16:48:21.456Z,856.08
2023-02-22T16:50:51.392Z,858.60
2023-02-22T16:53:20.810Z,852.92
2023-02-22T16:55:48.242Z,843.67
2023-02-22T16:58:17.204Z,839.72
2023-02-22T17:00:44.503Z,843.80
2023-02-22T17:03:21.115Z,839.45
2023-02-22T17:05:47.901Z,840.50
2023-02-22T17:08:16.308Z,845.28
2023-02-22T17:10:43.793Z,842.60
2023-02-22T17:13:22.805Z,842.65
2023-02-22T17:15:51.694Z,844.38
2023-02-22T17:18:22.760Z,842.72
2023-02-22T17:20:51.144Z,842.60
2023-02-22T17:23:18.620Z,840.53
2023-02-22T17:25:55.711Z,845.30
2023-02-22T17:28:24.419Z,845.45
2023-02-22T17:30:51.966Z,846.00
2023-02-22T17:33:21.964Z,844.50
2023-02-22T17:35:48.692Z,843.57
2023-02-22T17:38:18.687Z,846.17
2023-02-22T17:40:52.016Z,848.25
2023-02-22T17:43:19.333Z,841.25
2023-02-22T17:45:46.337Z,835.30
2023-02-22T17:48:14.100Z,837.35
2023-02-22T17:50:42.476Z,842.40
2023-02-22T17:53:11.183Z,830.22
2023-02-22T17:55:40.532Z,835.33
2023-02-22T17:58:14.339Z,825.20
2023-02-22T18:00:44.426Z,829.50
2023-02-22T18:03:16.060Z,827.60
2023-02-22T18:05:48.454Z,822.95
2023-02-22T18:08:15.750Z,828.53
2023-02-22T18:10:43.769Z,822.33
2023-02-22T18:13:14.083Z,819.50
2023-02-22T18:15:40.855Z,812.33
2023-02-22T18:18:08.388Z,814.93
2023-02-22T18:20:43.351Z,815.80
2023-02-22T18:23:17.564Z,808.33
2023-02-22T18:26:09.194Z,808.75
2023-02-22T18:28:36.990Z,814.22
2023-02-22T18:31:15.355Z,804.00
2023-02-22T18:33:43.847Z,809.00
2023-02-22T18:36:11.862Z,811.40
2023-02-22T18:38:43.138Z,813.72
2023-02-22T18:41:15.805Z,812.33
2023-02-22T18:43:42.965Z,817.10
2023-02-22T18:46:20.364Z,816.05
2023-02-22T18:48:48.888Z,818.28
2023-02-22T18:51:17.532Z,819.10
2023-02-22T18:53:47.503Z,818.92
2023-02-22T18:56:21.757Z,820.33
2023-02-22T18:58:52.965Z,812.67
2023-02-22T19:01:20.617Z,815.15
2023-02-22T19:03:49.101Z,825.70
2023-02-22T19:06:17.712Z,817.55
2023-02-22T19:08:45.876Z,824.20
2023-02-22T19:11:19.247Z,817.60
2023-02-22T19:13:47.863Z,815.33
2023-02-22T19:16:17.257Z,816.60
2023-02-22T19:18:44.354Z,816.15
2023-02-22T19:21:12.932Z,814.38
2023-02-22T19:23:45.479Z,812.75
2023-02-22T19:26:14.067Z,812.53
2023-02-22T19:28:40.759Z,814.60
2023-02-22T19:31:34.433Z,814.60
2023-02-22T19:34:11.989Z,813.53
2023-02-22T19:36:45.770Z,811.03
2023-02-22T19:39:17.334Z,803.83
2023-02-22T19:41:44.073Z,796.17
2023-02-22T19:44:10.937Z,800.00
2023-02-22T19:46:37.881Z,796.50
2023-02-22T19:49:05.070Z,801.57
2023-02-22T19:51:33.336Z,803.65
2023-02-22T19:54:03.263Z,808.50
2023-02-22T19:56:31.174Z,799.33
2023-02-22T19:59:01.506Z,794.10
2023-02-22T20:01:33.267Z,804.30
2023-02-22T20:04:08.957Z,810.80
2023-02-22T20:06:42.160Z,807.30
2023-02-22T20:09:12.690Z,801.03
2023-02-22T20:11:39.918Z,797.05
2023-02-22T20:14:06.675Z,809.38
2023-02-22T20:16:35.320Z,805.92
2023-02-22T20:19:02.096Z,805.20
2023-02-22T20:21:33.380Z,801.67
2023-02-22T20:24:08.592Z,807.80
2023-02-22T20:26:37.248Z,803.60
2023-02-22T20:29:06.404Z,804.25
2023-02-22T20:31:33.576Z,804.90
2023-02-22T20:34:01.491Z,801.40
2023-02-22T20:36:30.429Z,801.10
2023-02-22T20:38:59.542Z,806.45
2023-02-22T20:41:32.165Z,796.13
2023-02-22T20:44:00.918Z,803.15
2023-02-22T20:46:31.393Z,809.65
2023-02-22T20:49:00.202Z,800.72
2023-02-22T20:51:28.548Z,801.63
2023-02-22T20:53:59.729Z,801.63
2023-02-22T20:56:28.833Z,803.85
2023-02-22T20:58:57.640Z,813.78
2023-02-22T21:01:24.498Z,803.33
2023-02-22T21:03:51.558Z,798.58
2023-02-22T21:06:21.356Z,797.45
2023-02-22T21:08:53.700Z,797.75
2023-02-22T21:11:21.681Z,797.63
2023-02-22T21:13:48.899Z,798.47
2023-02-22T21:16:19.628Z,802.28
2023-02-22T21:18:46.421Z,800.58
2023-02-22T21:21:13.419Z,810.47
2023-02-22T21:23:40.995Z,799.30
2023-02-22T21:26:14.413Z,803.85
2023-02-22T21:28:51.033Z,799.25
2023-02-22T21:31:20.456Z,802.38
2023-02-22T21:33:50.408Z,800.80
2023-02-22T21:36:17.533Z,813.28
2023-02-22T21:38:46.802Z,806.33
2023-02-22T21:41:15.240Z,798.65
2023-02-22T21:43:42.849Z,802.03
2023-02-22T21:46:10.855Z,803.88
2023-02-22T21:48:48.299Z,804.83
2023-02-22T21:51:19.138Z,803.70
2023-02-22T21:53:52.276Z,804.13
2023-02-22T21:56:24.076Z,786.25
2023-02-22T21:58:59.042Z,799.78
2023-02-22T22:01:31.531Z,795.55
2023-02-22T22:03:59.983Z,795.03
2023-02-22T22:06:28.491Z,797.38
2023-02-22T22:08:56.335Z,795.25
2023-02-22T22:11:25.091Z,791.88
2023-02-22T22:13:57.334Z,788.85
2023-02-22T22:16:27.174Z,795.40
2023-02-22T22:18:55.107Z,797.67
2023-02-22T22:21:23.809Z,791.25
2023-02-22T22:23:55.753Z,799.10
2023-02-22T22:26:24.613Z,793.90
2023-02-22T22:28:54.474Z,793.22
2023-02-22T22:31:23.664Z,795.80
2023-02-22T22:33:50.820Z,793.40
2023-02-22T22:36:19.490Z,786.40
2023-02-22T22:38:48.835Z,786.28
2023-02-22T22:41:18.819Z,778.70
2023-02-22T22:43:46.381Z,784.08
2023-02-22T22:46:17.871Z,779.47
2023-02-22T22:48:46.996Z,780.43
2023-02-22T22:51:18.268Z,783.55
2023-02-22T22:53:47.297Z,780.92
2023-02-22T22:56:17.400Z,783.90
2023-02-22T22:58:49.543Z,786.17
2023-02-22T23:01:18.473Z,790.22
2023-02-22T23:03:55.280Z,787.70
2023-02-22T23:06:32.045Z,790.70
2023-02-22T23:09:11.209Z,780.67
2023-02-22T23:11:44.407Z,784.63
2023-02-22T23:14:19.476Z,776.88
2023-02-22T23:16:51.575Z,771.08
2023-02-22T23:19:19.237Z,758.13
2023-02-22T23:21:50.264Z,763.55
2023-02-22T23:24:20.646Z,752.58
2023-02-22T23:26:50.740Z,749.00
2023-02-22T23:29:19.235Z,741.03
2023-02-22T23:31:48.293Z,745.67
2023-02-22T23:34:21.222Z,758.38
2023-02-22T23:36:48.462Z,749.75
2023-02-22T23:39:17.266Z,731.60
2023-02-22T23:41:44.280Z,748.92
2023-02-22T23:44:13.976Z,755.77
2023-02-22T23:46:40.867Z,749.85
2023-02-22T23:49:09.834Z,762.05
2023-02-22T23:51:44.419Z,761.88
2023-02-22T23:54:14.042Z,762.00
2023-02-22T23:56:47.090Z,766.85
2023-02-22T23:59:14.566Z,777.30
